createdAt,value
2019-02-07T00:02:05.106Z,-1.10
2019-02-07T00:04:35.531Z,-1.10
2019-02-07T00:07:06.021Z,-1.20
2019-02-07T00:09:36.336Z,-1.30
2019-02-07T00:12:06.659Z,-1.30
2019-02-07T00:14:39.773Z,-1.20
2019-02-07T00:17:08.922Z,-1.30
2019-02-07T00:19:39.165Z,-1.20
2019-02-07T00:22:10.321Z,-1.30
2019-02-07T00:24:42.877Z,-1.30
2019-02-07T00:27:12.716Z,-1.30
2019-02-07T00:29:42.967Z,-1.40
2019-02-07T00:32:13.437Z,-1.40
2019-02-07T00:34:43.693Z,-1.40
2019-02-07T00:37:14.003Z,-1.30
2019-02-07T00:39:44.292Z,-1.30
2019-02-07T00:42:14.507Z,-1.30
2019-02-07T00:44:51.542Z,-1.20
2019-02-07T00:47:16.810Z,-1.10
2019-02-07T00:49:47.099Z,-1.10
2019-02-07T00:52:17.406Z,-1.20
2019-02-07T00:54:47.794Z,-1.30
2019-02-07T00:57:18.046Z,-1.40
2019-02-07T00:59:48.305Z,-1.30
2019-02-07T01:02:19.068Z,-1.40
2019-02-07T01:04:49.393Z,-1.30
2019-02-07T01:07:19.823Z,-1.30
2019-02-07T01:09:50.603Z,-1.30
2019-02-07T01:12:20.933Z,-1.20
2019-02-07T01:15:01.449Z,-1.20
2019-02-07T01:17:23.406Z,-1.20
2019-02-07T01:19:53.722Z,-1.30
2019-02-07T01:22:24.042Z,-1.40
2019-02-07T01:24:54.431Z,-1.40
2019-02-07T01:27:24.727Z,-1.40
2019-02-07T01:29:55.402Z,-1.40
2019-02-07T01:32:25.867Z,-1.40
2019-02-07T01:34:56.169Z,-1.30
2019-02-07T01:37:26.499Z,-1.20
2019-02-07T01:39:56.798Z,-1.20
2019-02-07T01:42:27.454Z,-1.20
2019-02-07T01:44:57.781Z,-1.10
2019-02-07T01:47:28.342Z,-1.10
2019-02-07T01:49:58.591Z,-1.00
2019-02-07T01:52:28.831Z,-1.10
2019-02-07T01:54:59.159Z,-1.10
2019-02-07T01:57:29.710Z,-1.10
2019-02-07T01:59:59.955Z,-1.20
2019-02-07T02:02:30.303Z,-1.10
2019-02-07T02:05:00.690Z,-1.00
2019-02-07T02:07:31.019Z,-0.90
2019-02-07T02:10:01.519Z,-1.00
2019-02-07T02:12:31.726Z,-1.00
2019-02-07T02:15:02.046Z,-1.00
2019-02-07T02:17:32.353Z,-1.10
2019-02-07T02:20:02.638Z,-1.10
2019-02-07T02:22:32.944Z,-1.10
2019-02-07T02:25:03.456Z,-1.10
2019-02-07T02:27:33.767Z,-1.10
2019-02-07T02:30:06.080Z,-1.10
2019-02-07T02:32:36.362Z,-1.00
2019-02-07T02:35:07.146Z,-0.90
2019-02-07T02:37:37.897Z,-0.80
2019-02-07T02:40:08.256Z,-0.80
2019-02-07T02:42:38.500Z,-0.70
2019-02-07T02:45:09.940Z,-0.60
2019-02-07T02:47:40.146Z,-0.60
2019-02-07T02:50:12.835Z,-0.60
2019-02-07T02:52:43.049Z,-0.60
2019-02-07T02:55:17.274Z,-0.60
2019-02-07T02:57:47.470Z,-0.60
2019-02-07T03:00:21.524Z,-0.60
2019-02-07T03:03:09.773Z,-0.60
2019-02-07T03:06:03.343Z,-0.60
2019-02-07T03:08:59.572Z,-0.60
2019-02-07T03:11:40.556Z,-0.70
2019-02-07T03:14:33.192Z,-0.70
2019-02-07T03:17:21.540Z,-0.70
2019-02-07T03:20:09.682Z,-0.70
2019-02-07T03:22:57.514Z,-0.70
2019-02-07T03:26:01.732Z,-0.70
2019-02-07T03:28:59.920Z,-0.80
2019-02-07T03:31:55.036Z,-0.90
2019-02-07T03:34:45.512Z,-0.90
2019-02-07T03:37:43.790Z,-0.90
2019-02-07T03:40:27.015Z,-0.90
2019-02-07T03:43:15.054Z,-0.90
2019-02-07T03:46:04.526Z,-1.00
2019-02-07T03:48:53.793Z,-1.00
2019-02-07T03:51:43.271Z,-1.00
2019-02-07T03:54:38.680Z,-1.10
2019-02-07T03:57:43.409Z,-1.10
2019-02-07T04:00:27.665Z,-1.00
2019-02-07T04:03:06.483Z,-1.00
2019-02-07T04:05:51.857Z,-1.00
2019-02-07T04:08:40.305Z,-0.90
2019-02-07T04:11:36.646Z,-0.90
2019-02-07T04:14:30.924Z,-0.90
2019-02-07T04:17:14.664Z,-0.80
2019-02-07T04:20:02.804Z,-0.90
2019-02-07T04:23:04.465Z,-0.90
2019-02-07T04:25:54.754Z,-1.00
2019-02-07T04:28:42.793Z,-1.00
2019-02-07T04:31:28.587Z,-1.00
2019-02-07T04:34:18.871Z,-1.00
2019-02-07T04:37:11.315Z,-1.00
2019-02-07T04:40:03.452Z,-1.00
2019-02-07T04:42:46.575Z,-1.10
2019-02-07T04:45:27.648Z,-1.20
2019-02-07T04:48:15.890Z,-1.10
2019-02-07T04:51:14.889Z,-1.00
2019-02-07T04:54:07.227Z,-1.00
2019-02-07T04:56:56.495Z,-0.90
2019-02-07T04:59:45.864Z,-0.90
2019-02-07T05:02:39.535Z,-1.00
2019-02-07T05:05:27.882Z,-1.00
2019-02-07T05:08:16.432Z,-1.10
2019-02-07T05:11:05.802Z,-1.10
2019-02-07T05:13:53.944Z,-1.10
2019-02-07T05:16:43.760Z,-1.10
2019-02-07T05:19:31.944Z,-1.10
2019-02-07T05:22:33.730Z,-1.00
2019-02-07T05:25:23.200Z,-1.00
2019-02-07T05:28:31.104Z,-1.10
2019-02-07T05:31:20.887Z,-1.10
2019-02-07T05:34:10.255Z,-1.20
2019-02-07T05:36:55.434Z,-1.20
2019-02-07T05:39:44.797Z,-1.30
2019-02-07T05:42:33.963Z,-1.30
2019-02-07T05:45:23.539Z,-1.30
2019-02-07T05:48:04.818Z,-1.30
2019-02-07T05:50:54.599Z,-1.20
2019-02-07T05:53:46.630Z,-1.20
2019-02-07T05:56:36.414Z,-1.30
2019-02-07T05:59:25.689Z,-1.20
2019-02-07T06:02:13.716Z,-1.20
2019-02-07T06:05:01.755Z,-1.10
2019-02-07T06:07:58.298Z,-1.10
2019-02-07T06:10:46.338Z,-1.10
2019-02-07T06:13:41.847Z,-1.20
2019-02-07T06:16:31.117Z,-1.10
2019-02-07T06:19:20.488Z,-1.20
2019-02-07T06:22:14.327Z,-1.30
2019-02-07T06:25:06.602Z,-1.40
2019-02-07T06:28:11.227Z,-1.30
2019-02-07T06:31:06.329Z,-1.20
2019-02-07T06:34:07.167Z,-1.20
2019-02-07T06:36:58.586Z,-1.20
2019-02-07T06:39:46.835Z,-1.10
2019-02-07T06:42:42.448Z,-1.10
2019-02-07T06:45:37.652Z,-1.10
2019-02-07T06:48:35.933Z,-1.10
2019-02-07T06:51:24.382Z,-1.00
2019-02-07T06:54:12.525Z,-0.90
2019-02-07T06:57:01.803Z,-0.90
2019-02-07T06:59:57.203Z,-0.90
2019-02-07T07:02:59.064Z,-0.80
2019-02-07T07:05:42.193Z,-0.80
2019-02-07T07:08:30.227Z,-0.70
2019-02-07T07:11:19.598Z,-0.60
2019-02-07T07:14:02.317Z,-0.60
2019-02-07T07:16:43.183Z,-0.50
2019-02-07T07:19:35.419Z,-0.40
2019-02-07T07:22:24.892Z,-0.30
2019-02-07T07:25:12.726Z,-0.30
2019-02-07T07:27:58.826Z,-0.20
2019-02-07T07:30:46.961Z,-0.10
2019-02-07T07:33:35.001Z,0.00
2019-02-07T07:36:23.857Z,0.10
2019-02-07T07:39:22.341Z,0.20
2019-02-07T07:42:19.710Z,0.30
2019-02-07T07:45:09.991Z,0.40
2019-02-07T07:47:59.260Z,0.60
2019-02-07T07:50:51.701Z,0.70
2019-02-07T07:53:40.456Z,0.80
2019-02-07T07:56:33.410Z,0.80
2019-02-07T07:59:21.756Z,0.90
2019-02-07T08:02:20.205Z,1.00
2019-02-07T08:05:12.171Z,1.00
2019-02-07T08:08:00.414Z,1.10
2019-02-07T08:10:58.078Z,1.20
2019-02-07T08:14:05.879Z,1.20
2019-02-07T08:17:01.190Z,1.20
2019-02-07T08:19:50.661Z,1.20
2019-02-07T08:22:38.598Z,1.20
2019-02-07T08:25:23.061Z,1.20
2019-02-07T08:28:21.638Z,1.20
2019-02-07T08:31:29.441Z,1.20
2019-02-07T08:34:17.380Z,1.30
2019-02-07T08:37:12.993Z,1.40
2019-02-07T08:40:08.307Z,1.40
2019-02-07T08:42:58.082Z,1.40
2019-02-07T08:45:52.164Z,1.40
2019-02-07T08:48:45.018Z,1.40
2019-02-07T08:51:40.324Z,1.40
2019-02-07T08:54:35.428Z,1.40
2019-02-07T08:57:24.800Z,1.60
2019-02-07T09:00:12.734Z,1.70
2019-02-07T09:03:02.003Z,1.90
2019-02-07T09:05:47.178Z,2.00
2019-02-07T09:08:45.761Z,2.20
2019-02-07T09:11:35.540Z,2.30
2019-02-07T09:14:17.336Z,2.40
2019-02-07T09:17:10.288Z,2.60
2019-02-07T09:19:59.656Z,2.80
2019-02-07T09:23:01.314Z,3.10
2019-02-07T09:25:50.683Z,3.20
2019-02-07T09:28:52.342Z,3.40
2019-02-07T09:31:34.241Z,3.60
2019-02-07T09:34:30.450Z,3.60
2019-02-07T09:37:25.574Z,3.60
2019-02-07T09:40:15.249Z,3.90
2019-02-07T09:43:10.742Z,3.90
2019-02-07T09:45:59.183Z,4.20
2019-02-07T09:48:54.419Z,4.40
2019-02-07T09:51:39.181Z,4.40
2019-02-07T09:54:34.285Z,4.40
2019-02-07T09:57:23.757Z,4.50
2019-02-07T10:00:22.444Z,4.60
2019-02-07T10:03:10.383Z,4.70
2019-02-07T10:06:08.767Z,4.90
2019-02-07T10:08:48.310Z,4.90
2019-02-07T10:11:43.510Z,5.10
2019-02-07T10:14:42.101Z,5.20
2019-02-07T10:17:36.893Z,5.50
2019-02-07T10:20:37.402Z,5.50
2019-02-07T10:23:27.008Z,5.60
2019-02-07T10:26:35.316Z,5.80
2019-02-07T10:29:30.929Z,5.70
2019-02-07T10:32:32.383Z,5.80
2019-02-07T10:35:29.330Z,6.00
2019-02-07T10:38:17.471Z,6.00
2019-02-07T10:41:19.436Z,5.80
2019-02-07T10:44:08.807Z,6.00
2019-02-07T10:46:56.612Z,6.10
2019-02-07T10:49:46.008Z,6.10
2019-02-07T10:52:34.665Z,6.30
2019-02-07T10:55:37.021Z,6.50
2019-02-07T10:58:49.470Z,6.60
2019-02-07T11:01:44.399Z,6.80
2019-02-07T11:04:39.024Z,7.00
2019-02-07T11:07:29.337Z,7.20
2019-02-07T11:10:16.659Z,7.20
2019-02-07T11:13:04.488Z,7.10
2019-02-07T11:15:56.525Z,7.10
2019-02-07T11:18:55.098Z,6.80
2019-02-07T11:21:34.137Z,6.80
2019-02-07T11:24:21.970Z,6.80
2019-02-07T11:27:26.089Z,6.80
2019-02-07T11:30:33.580Z,6.70
2019-02-07T11:33:32.065Z,6.80
2019-02-07T11:36:21.432Z,6.90
2019-02-07T11:39:09.678Z,6.80
2019-02-07T11:41:57.640Z,6.80
2019-02-07T11:44:45.447Z,6.90
2019-02-07T11:47:37.786Z,6.90
2019-02-07T11:50:40.877Z,7.00
2019-02-07T11:53:29.224Z,7.10
2019-02-07T11:56:17.363Z,7.10
2019-02-07T11:59:07.150Z,6.90
2019-02-07T12:01:56.514Z,6.80
2019-02-07T12:05:00.938Z,6.70
2019-02-07T12:07:49.897Z,6.50
2019-02-07T12:10:43.056Z,6.40
2019-02-07T12:13:47.785Z,6.40
2019-02-07T12:16:32.450Z,6.60
2019-02-07T12:19:25.812Z,6.60
2019-02-07T12:22:24.393Z,6.80
2019-02-07T12:25:16.734Z,6.90
2019-02-07T12:28:06.104Z,6.90
2019-02-07T12:30:58.239Z,6.90
2019-02-07T12:33:56.619Z,7.10
2019-02-07T12:36:48.865Z,7.00
2019-02-07T12:39:38.329Z,6.90
2019-02-07T12:42:26.603Z,7.10
2019-02-07T12:45:25.260Z,7.10
2019-02-07T12:48:13.097Z,7.30
2019-02-07T12:51:02.221Z,7.50
2019-02-07T12:53:52.346Z,7.30
2019-02-07T12:56:36.493Z,7.60
2019-02-07T12:59:24.942Z,7.60
2019-02-07T13:02:13.491Z,7.70
2019-02-07T13:05:06.695Z,7.60
2019-02-07T13:07:58.007Z,7.60
2019-02-07T13:11:05.257Z,7.50
2019-02-07T13:13:57.416Z,7.40
2019-02-07T13:16:45.646Z,7.50
2019-02-07T13:19:47.234Z,7.30
2019-02-07T13:22:41.513Z,7.30
2019-02-07T13:25:39.810Z,7.00
2019-02-07T13:28:37.784Z,6.90
2019-02-07T13:31:32.516Z,6.70
2019-02-07T13:34:24.242Z,6.60
2019-02-07T13:37:22.424Z,6.60
2019-02-07T13:40:12.408Z,6.50
2019-02-07T13:43:20.109Z,6.50
2019-02-07T13:46:17.029Z,6.50
2019-02-07T13:49:04.991Z,6.50
2019-02-07T13:52:09.720Z,6.50
2019-02-07T13:55:02.165Z,6.50
2019-02-07T13:57:52.590Z,6.40
2019-02-07T14:00:39.060Z,6.40
2019-02-07T14:03:37.645Z,6.40
2019-02-07T14:06:25.686Z,6.50
2019-02-07T14:09:29.799Z,6.50
2019-02-07T14:12:13.641Z,6.40
2019-02-07T14:15:12.124Z,6.30
2019-02-07T14:18:05.691Z,6.40
2019-02-07T14:20:56.496Z,6.50
2019-02-07T14:23:45.456Z,6.60
2019-02-07T14:26:37.796Z,6.50
2019-02-07T14:29:30.135Z,6.50
2019-02-07T14:32:25.750Z,6.40
2019-02-07T14:35:20.866Z,6.30
2019-02-07T14:38:12.991Z,6.40
2019-02-07T14:41:17.413Z,6.60
2019-02-07T14:44:00.229Z,6.60
2019-02-07T14:46:55.642Z,6.60
2019-02-07T14:49:25.942Z,6.70
2019-02-07T14:51:56.559Z,6.80
2019-02-07T14:54:26.840Z,7.00
2019-02-07T14:56:57.142Z,7.00
2019-02-07T14:59:27.672Z,7.00
2019-02-07T15:01:58.307Z,6.90
2019-02-07T15:04:28.712Z,6.90
2019-02-07T15:06:59.007Z,6.80
2019-02-07T15:09:29.307Z,6.80
2019-02-07T15:12:00.150Z,6.80
2019-02-07T15:14:35.753Z,6.60
2019-02-07T15:17:06.152Z,6.60
2019-02-07T15:19:36.660Z,6.40
2019-02-07T15:22:07.384Z,6.50
2019-02-07T15:24:37.652Z,6.50
2019-02-07T15:27:08.070Z,6.40
2019-02-07T15:29:38.444Z,6.30
2019-02-07T15:32:08.682Z,6.20
2019-02-07T15:35:03.243Z,6.30
2019-02-07T15:37:39.150Z,6.20
2019-02-07T15:40:37.478Z,6.20
2019-02-07T15:43:26.396Z,6.10
2019-02-07T15:46:15.780Z,6.10
2019-02-07T15:49:19.352Z,6.00
2019-02-07T15:52:15.150Z,6.00
2019-02-07T15:55:18.033Z,6.00
2019-02-07T15:58:07.143Z,5.90
2019-02-07T16:01:13.677Z,5.90
2019-02-07T16:04:28.931Z,5.90
2019-02-07T16:07:24.093Z,5.80
2019-02-07T16:09:53.687Z,5.80
2019-02-07T16:12:33.785Z,5.80
2019-02-07T16:15:18.125Z,5.80
2019-02-07T16:18:05.152Z,5.80
2019-02-07T16:20:48.854Z,5.70
2019-02-07T16:23:31.444Z,5.70
2019-02-07T16:26:08.308Z,5.60
2019-02-07T16:28:54.980Z,5.60
2019-02-07T16:32:09.087Z,5.60
2019-02-07T16:34:52.961Z,5.60
2019-02-07T16:37:29.568Z,5.50
2019-02-07T16:40:00.374Z,5.40
2019-02-07T16:42:30.718Z,5.40
2019-02-07T16:45:01.015Z,5.30
2019-02-07T16:47:31.346Z,5.30
2019-02-07T16:50:01.868Z,5.30
2019-02-07T16:52:33.795Z,5.20
2019-02-07T16:55:06.212Z,5.20
2019-02-07T16:57:37.419Z,5.10
2019-02-07T17:00:21.870Z,5.00
2019-02-07T17:02:53.499Z,5.00
2019-02-07T17:05:25.058Z,4.80
2019-02-07T17:07:55.603Z,4.80
2019-02-07T17:10:29.619Z,4.80
2019-02-07T17:13:02.747Z,4.80
2019-02-07T17:15:33.326Z,4.80
2019-02-07T17:18:03.572Z,4.70
2019-02-07T17:20:33.969Z,4.70
2019-02-07T17:23:05.095Z,4.60
2019-02-07T17:25:35.534Z,4.60
2019-02-07T17:28:06.159Z,4.60
2019-02-07T17:30:37.022Z,4.50
2019-02-07T17:33:07.435Z,4.40
2019-02-07T17:35:37.756Z,4.30
2019-02-07T17:38:08.065Z,4.20
2019-02-07T17:40:38.444Z,4.20
2019-02-07T17:43:08.778Z,4.20
2019-02-07T17:45:39.122Z,4.20
2019-02-07T17:48:09.593Z,4.10
2019-02-07T17:50:39.919Z,4.10
2019-02-07T17:53:10.369Z,4.10
2019-02-07T17:55:40.684Z,4.00
2019-02-07T17:58:11.681Z,4.00
2019-02-07T18:01:03.157Z,3.90
2019-02-07T18:03:34.235Z,3.70
2019-02-07T18:06:05.844Z,3.70
2019-02-07T18:08:36.136Z,3.60
2019-02-07T18:11:07.017Z,3.50
2019-02-07T18:13:37.636Z,3.50
2019-02-07T18:16:08.140Z,3.30
2019-02-07T18:18:38.344Z,3.20
2019-02-07T18:21:08.672Z,3.00
2019-02-07T18:23:38.932Z,2.80
2019-02-07T18:26:09.818Z,2.60
2019-02-07T18:28:40.291Z,2.40
2019-02-07T18:31:11.786Z,2.30
2019-02-07T18:33:42.775Z,2.20
2019-02-07T18:36:14.642Z,2.10
2019-02-07T18:38:44.985Z,2.10
2019-02-07T18:41:15.276Z,2.00
2019-02-07T18:43:46.503Z,2.10
2019-02-07T18:46:18.733Z,2.00
2019-02-07T18:48:49.456Z,2.10
2019-02-07T18:51:20.694Z,2.00
2019-02-07T18:53:51.669Z,2.00
2019-02-07T18:56:23.350Z,1.90
2019-02-07T18:58:54.002Z,1.90
2019-02-07T19:01:24.592Z,1.90
2019-02-07T19:03:55.668Z,2.00
2019-02-07T19:06:27.103Z,2.00
2019-02-07T19:08:58.312Z,1.90
2019-02-07T19:11:29.129Z,1.90
2019-02-07T19:14:00.262Z,2.00
2019-02-07T19:16:32.264Z,2.20
2019-02-07T19:19:03.783Z,2.20
2019-02-07T19:21:35.069Z,2.00
2019-02-07T19:24:06.672Z,1.90
2019-02-07T19:26:39.215Z,2.10
2019-02-07T19:29:12.018Z,2.20
2019-02-07T19:31:47.099Z,2.20
2019-02-07T19:34:19.679Z,2.10
2019-02-07T19:36:50.368Z,2.00
2019-02-07T19:39:21.033Z,1.90
2019-02-07T19:41:52.144Z,1.70
2019-02-07T19:44:23.771Z,1.60
2019-02-07T19:46:55.367Z,1.50
2019-02-07T19:49:26.132Z,1.50
2019-02-07T19:52:07.736Z,1.60
2019-02-07T19:54:30.009Z,1.70
2019-02-07T19:57:00.734Z,1.50
2019-02-07T19:59:31.603Z,1.30
2019-02-07T20:02:03.026Z,1.30
2019-02-07T20:04:34.675Z,1.40
2019-02-07T20:07:05.874Z,1.30
2019-02-07T20:09:36.832Z,1.20
2019-02-07T20:12:07.447Z,1.10
2019-02-07T20:14:37.881Z,1.00
2019-02-07T20:17:08.360Z,0.90
2019-02-07T20:19:38.893Z,0.80
2019-02-07T20:22:19.867Z,0.70
2019-02-07T20:24:46.166Z,0.60
2019-02-07T20:27:14.545Z,0.60
2019-02-07T20:29:44.948Z,0.60
2019-02-07T20:32:15.396Z,0.50
2019-02-07T20:34:45.768Z,0.60
2019-02-07T20:37:16.367Z,0.60
2019-02-07T20:39:46.668Z,0.60
2019-02-07T20:42:17.024Z,0.50
2019-02-07T20:44:47.343Z,0.40
2019-02-07T20:47:17.760Z,0.40
2019-02-07T20:49:48.191Z,0.30
2019-02-07T20:52:18.714Z,0.10
2019-02-07T20:54:49.133Z,0.00
2019-02-07T20:57:19.494Z,0.00
2019-02-07T20:59:49.766Z,0.00
2019-02-07T21:02:20.126Z,-0.10
2019-02-07T21:04:50.447Z,-0.10
2019-02-07T21:07:21.127Z,-0.10
2019-02-07T21:09:51.462Z,-0.10
2019-02-07T21:12:21.756Z,-0.10
2019-02-07T21:14:52.035Z,-0.10
2019-02-07T21:17:22.441Z,-0.10
2019-02-07T21:19:52.843Z,-0.10
2019-02-07T21:22:23.509Z,-0.10
2019-02-07T21:24:53.804Z,-0.10
2019-02-07T21:27:24.279Z,-0.20
2019-02-07T21:29:54.588Z,-0.10
2019-02-07T21:32:24.915Z,-0.10
2019-02-07T21:34:55.434Z,0.00
2019-02-07T21:37:25.946Z,0.00
2019-02-07T21:39:56.257Z,0.00
2019-02-07T21:42:26.807Z,0.00
2019-02-07T21:44:57.083Z,0.00
2019-02-07T21:47:27.344Z,0.00
2019-02-07T21:49:57.750Z,0.10
2019-02-07T21:52:28.313Z,0.10
2019-02-07T21:54:58.603Z,0.20
2019-02-07T21:57:28.886Z,0.20
2019-02-07T22:00:00.869Z,0.20
2019-02-07T22:02:31.254Z,0.20
2019-02-07T22:05:01.642Z,0.20
2019-02-07T22:07:32.186Z,0.20
2019-02-07T22:10:02.503Z,0.30
2019-02-07T22:12:32.761Z,0.30
2019-02-07T22:15:03.072Z,0.30
2019-02-07T22:17:33.379Z,0.20
2019-02-07T22:20:03.717Z,0.20
2019-02-07T22:22:34.006Z,0.20
2019-02-07T22:25:04.744Z,0.20
2019-02-07T22:27:35.934Z,0.20
2019-02-07T22:30:09.313Z,0.30
2019-02-07T22:32:39.673Z,0.30
2019-02-07T22:35:10.479Z,0.20
2019-02-07T22:37:40.775Z,0.30
2019-02-07T22:40:14.240Z,0.30
2019-02-07T22:42:48.035Z,0.30
2019-02-07T22:45:16.864Z,0.40
2019-02-07T22:47:47.781Z,0.40
2019-02-07T22:50:20.183Z,0.60
2019-02-07T22:52:56.799Z,0.60
2019-02-07T22:55:22.705Z,0.70
2019-02-07T22:57:53.195Z,0.70
2019-02-07T23:01:10.542Z,0.60
2019-02-07T23:03:52.225Z,0.60
2019-02-07T23:06:22.782Z,0.50
2019-02-07T23:08:53.834Z,0.60
2019-02-07T23:11:25.045Z,0.60
2019-02-07T23:13:56.038Z,0.60
2019-02-07T23:16:26.813Z,0.60
2019-02-07T23:18:57.846Z,0.50
2019-02-07T23:21:29.180Z,0.60
2019-02-07T23:23:59.817Z,0.60
2019-02-07T23:26:30.548Z,0.60
2019-02-07T23:29:01.396Z,0.60
2019-02-07T23:31:32.200Z,0.60
2019-02-07T23:34:02.824Z,0.60
2019-02-07T23:36:33.267Z,0.60
2019-02-07T23:39:04.668Z,0.60
2019-02-07T23:41:34.926Z,0.60
2019-02-07T23:44:06.467Z,0.50
2019-02-07T23:46:36.842Z,0.40
2019-02-07T23:49:07.372Z,0.40
2019-02-07T23:51:37.883Z,0.30
2019-02-07T23:54:08.183Z,0.30
2019-02-07T23:56:38.450Z,0.40
2019-02-07T23:59:09.230Z,0.50
